Rechercher aéroport 
image banner adimage banner adimage banner ad
image banner ad

3CL5 - Chase Plaza

Situé à Los Angeles, United States

ICAO - 3CL5, IATA -

Données fournies par Airmate  

Information générale

Coordonnées: N34°2'44" W118°15'31"
Élévation : 412 feet MSL.
Variation magnétique : 14° East
Voir autres Aéroports à California

Données opérationnelles

Special qualification required
Heure actuelle UTC:
Heure actuelle locale:
METAR: KHHR 212253Z 27008KT 10SM CLR 27/16 A3002 RMK AO2 SLP163 T02720156 $
Voir NOTAMs / SUP AIP / TFR affectant cet aéroport [VIEW]
Fréquences de communication: [VIEW]

Pistes:

Coordonnées de l'aéroport

Adresse: Los Angeles United States

Vue satellite de 3CL5